Airfield :
LOGIN :

Register | Disclaimer

   EN    FR    IT 

 










Legend :    VFR   Marginal VFR   IFR   Intensive IFR   Very Intensive IFR
Visi :
Ceiling :
>= 8 km
>= 3000ft
5 to 8 km
1000 to 3000 ft
1500m to 5 km
500 to 1000 ft
800 to 1500m
200 to 500 ft
< 800m
< 200 ft
Symbols :   Thunderstorms  Fog  Heavy snow  Heavy precipitations  Wind > 20 kt
SIGMETs :     Misc.  Thunderstorms  Icing  Turbulence  Mountain Waves  Volcanic Ashes







- Airport Elevation : 121 ft
- IATA code : HUY
- Download approach charts


EGNJ - Humberside

CURRENT METAR :
  • 190650Z 19004KT 2000 BR SCT001 OVC004 14/14 Q1006

EXPIRED METARs :
  • 190620Z VRB03KT 2000 BR SCT001 OVC004 14/14 Q1006
  • 190550Z 17004KT 130V190 2000 BR SCT001 OVC004 13/13 Q1006
  • 190520Z 17004KT 2000 BR SCT001 OVC004 14/14 Q1006
  • 190450Z AUTO 15004KT 0800 FG SCT001/// OVC004/// 14/14 Q1006
  • 190420Z AUTO 17004KT 130V200 1100 BR BKN001/// OVC004/// 14/14 Q1006

TAF COR TAF EGNJ
Valid from the 19 at 06:00 until the 19 at 15:00 UTC


190527Z 1906/1915 13007KT 0400 FG BKN001
BECMG 1906/1909 9999 NSW SCT006
TEMPO 1908/1915 4000 RA BKN006
PROB40
TEMPO 1909/1915 2500 +RA BKN002
ATIS : +44 1652 682 020
No reported NOTAMs for that airfield.



MET'MAP, your aeronautical weather chart ! - Copyright ORBIFLY December 2007 - Disclaimer

ORBIFLY MET'MAP TEAM :

Programming & Development : Alexandra Zaïnal
Concept & Development : Baudouin d'Aumeries
Co-Development & Prog : Marc-Olivier Méhu
Technical & hardware support : Manuel Goepfert

Contact : metmap@orbifly.com




SOURCES & CREDITS :

   NOAA